Time;durP1;ratioP1;P1;durP2;ratioP2;P2;SDS_P1;SDS_P2;PMS_P1;PMS_P2;Temp;Humidity;BMP_temperature;BMP_pressure;BME280_temperature;BME280_humidity;BME280_pressure;Samples;Min_cycle;Max_cycle;Signal;HPM_P1;HPM_P2
2021/09/02 00:01:21;;;;;;;11.53;8.73;;;;;;;17.86;81.11;99728.32;1803334;79;21714;-53
2021/09/02 00:04:27;;;;;;;9.40;7.33;;;;;;;17.82;80.93;99722.41;1802363;79;21189;-52
2021/09/02 00:07:34;;;;;;;11.12;8.70;;;;;;;17.80;80.75;99723.74;1802673;79;21262;-53
2021/09/02 00:10:39;;;;;;;10.43;8.48;;;;;;;17.76;80.66;99710.05;1802133;79;21174;-52
2021/09/02 00:13:44;;;;;;;11.12;8.38;;;;;;;17.72;80.78;99713.87;1802628;79;21229;-52
2021/09/02 00:16:50;;;;;;;12.15;8.88;;;;;;;17.71;81.21;99719.64;1802348;79;21320;-53
2021/09/02 00:19:55;;;;;;;9.93;8.90;;;;;;;17.71;81.46;99715.49;1802119;79;21267;-54
2021/09/02 00:23:02;;;;;;;11.65;9.18;;;;;;;17.68;81.54;99718.17;1798847;79;22014;-54
2021/09/02 00:26:07;;;;;;;10.60;8.95;;;;;;;17.63;81.62;99710.30;1802267;79;21327;-52
2021/09/02 00:29:13;;;;;;;10.00;8.53;;;;;;;17.60;82.12;99702.47;1802621;79;21181;-52
2021/09/02 00:32:20;;;;;;;10.72;9.58;;;;;;;17.58;82.51;99712.93;1802744;79;21383;-52
2021/09/02 00:35:25;;;;;;;10.23;8.58;;;;;;;17.54;82.68;99704.25;1802808;79;21344;-52
2021/09/02 00:38:37;;;;;;;10.00;9.00;;;;;;;17.52;82.80;99706.97;1802466;79;21320;-52
2021/09/02 00:41:39;;;;;;;10.15;9.05;;;;;;;17.44;82.75;99703.13;1802240;79;21397;-52
2021/09/02 00:44:47;;;;;;;12.05;9.35;;;;;;;17.38;83.10;99706.80;1802427;79;21558;-53
2021/09/02 00:47:51;;;;;;;10.13;9.08;;;;;;;17.34;83.39;99704.22;1802387;79;21261;-54
2021/09/02 00:50:56;;;;;;;11.25;9.33;;;;;;;17.29;83.52;99704.08;1802472;79;21375;-54
2021/09/02 00:54:03;;;;;;;12.10;9.45;;;;;;;17.23;83.70;99705.03;1794651;79;21366;-53
2021/09/02 00:57:09;;;;;;;10.13;8.48;;;;;;;17.17;84.12;99700.44;1802363;79;21324;-53
2021/09/02 01:00:22;;;;;;;10.18;8.80;;;;;;;17.14;84.37;99700.91;1802749;79;21382;-53
2021/09/02 01:03:27;;;;;;;10.80;8.63;;;;;;;17.12;84.65;99704.44;1802626;79;22164;-53
2021/09/02 01:06:33;;;;;;;12.85;9.25;;;;;;;17.12;84.98;99705.83;1803129;79;21300;-53
2021/09/02 01:09:40;;;;;;;9.93;8.90;;;;;;;17.11;84.98;99711.06;1802716;78;21193;-53
2021/09/02 01:12:49;;;;;;;13.08;10.58;;;;;;;17.08;84.87;99700.45;1802460;79;21193;-53
2021/09/02 01:15:56;;;;;;;10.78;9.15;;;;;;;17.03;84.69;99697.00;1802660;79;21186;-52
2021/09/02 01:19:02;;;;;;;12.20;10.10;;;;;;;16.98;84.86;99703.77;1802515;79;21198;-52
2021/09/02 01:22:07;;;;;;;17.65;10.80;;;;;;;16.95;84.98;99703.41;1801049;79;21232;-53
2021/09/02 01:25:17;;;;;;;16.15;12.05;;;;;;;16.90;85.15;99704.13;1803086;79;21433;-53
2021/09/02 01:28:22;;;;;;;14.53;10.90;;;;;;;16.88;85.19;99704.03;1803439;79;21150;-53
2021/09/02 01:31:28;;;;;;;12.80;10.23;;;;;;;16.86;85.23;99707.55;1802504;79;21305;-54
2021/09/02 01:34:34;;;;;;;12.90;10.72;;;;;;;16.81;85.19;99707.44;1803021;79;21264;-53
2021/09/02 01:37:48;;;;;;;14.78;11.63;;;;;;;16.76;85.08;99704.52;1802714;79;21185;-53
2021/09/02 01:40:56;;;;;;;12.45;10.75;;;;;;;16.71;85.15;99701.08;1803067;78;21241;-53
2021/09/02 01:44:02;;;;;;;12.47;10.08;;;;;;;16.68;85.43;99710.36;1802624;79;21371;-52
2021/09/02 01:47:07;;;;;;;13.90;11.20;;;;;;;16.65;85.58;99710.83;1802607;79;21643;-53
2021/09/02 01:50:17;;;;;;;13.95;10.48;;;;;;;16.61;85.57;99702.67;1802339;79;21347;-53
2021/09/02 01:53:25;;;;;;;10.78;9.65;;;;;;;16.57;85.68;99695.94;1802658;79;21371;-53
2021/09/02 01:56:30;;;;;;;14.60;10.78;;;;;;;16.52;85.65;99699.39;1802719;79;21232;-53
2021/09/02 01:59:35;;;;;;;13.08;10.28;;;;;;;16.47;85.76;99696.47;1794907;79;21403;-53
2021/09/02 02:02:41;;;;;;;13.30;11.22;;;;;;;16.44;85.70;99695.00;1802533;79;21390;-53
2021/09/02 02:05:48;;;;;;;14.78;10.55;;;;;;;16.43;85.91;99685.00;1802407;79;21225;-52
2021/09/02 02:08:55;;;;;;;14.03;9.98;;;;;;;16.44;86.06;99674.28;1802456;79;21202;-52
2021/09/02 02:12:01;;;;;;;12.40;11.03;;;;;;;16.47;86.47;99671.61;1803460;79;21324;-53
2021/09/02 02:15:07;;;;;;;12.55;10.45;;;;;;;16.50;86.69;99675.81;1802430;79;21359;-54
2021/09/02 02:18:16;;;;;;;12.85;10.50;;;;;;;16.50;86.63;99671.67;1802744;79;21327;-54
2021/09/02 02:21:22;;;;;;;13.08;10.90;;;;;;;16.50;86.80;99667.53;1802211;79;21362;-53
2021/09/02 02:24:27;;;;;;;14.83;10.70;;;;;;;16.52;86.96;99665.38;1801714;79;21252;-53
2021/09/02 02:27:33;;;;;;;14.10;10.63;;;;;;;16.55;87.13;99670.45;1804387;79;21240;-54
2021/09/02 02:30:39;;;;;;;12.25;9.78;;;;;;;16.58;87.28;99669.98;1804339;79;21351;-52
2021/09/02 02:33:47;;;;;;;13.10;9.65;;;;;;;16.59;87.14;99654.55;1804359;79;21355;-53
2021/09/02 02:36:53;;;;;;;13.58;10.60;;;;;;;16.60;87.06;99664.55;1804229;79;21324;-53
2021/09/02 02:39:59;;;;;;;11.48;10.18;;;;;;;16.58;86.96;99666.69;1804334;79;21197;-53
2021/09/02 02:43:05;;;;;;;10.58;9.53;;;;;;;16.57;87.05;99662.77;1794145;79;21370;-53
2021/09/02 02:46:10;;;;;;;12.35;10.60;;;;;;;16.59;87.01;99668.89;1804300;79;21304;-53
2021/09/02 02:49:17;;;;;;;14.60;11.43;;;;;;;16.61;87.02;99662.60;1804111;79;21201;-55
2021/09/02 02:52:22;;;;;;;13.55;11.30;;;;;;;16.62;86.82;99660.16;1794939;79;21343;-55
2021/09/02 02:55:29;;;;;;;12.78;11.10;;;;;;;16.62;86.70;99665.13;1803874;79;21252;-53
2021/09/02 02:58:34;;;;;;;16.15;13.20;;;;;;;16.62;86.58;99665.69;1803694;79;21504;-54
2021/09/02 03:01:39;;;;;;;14.78;11.43;;;;;;;16.62;86.41;99664.31;1803775;79;21363;-53
2021/09/02 03:04:46;;;;;;;13.53;11.63;;;;;;;16.62;86.30;99658.78;1804021;79;21370;-52
2021/09/02 03:07:52;;;;;;;14.38;12.20;;;;;;;16.62;86.11;99662.92;1803907;79;21208;-52
2021/09/02 03:10:58;;;;;;;13.93;12.15;;;;;;;16.60;86.00;99663.69;1804123;79;21158;-52
2021/09/02 03:14:05;;;;;;;13.45;11.57;;;;;;;16.58;85.85;99653.40;1804083;79;21126;-52
2021/09/02 03:17:11;;;;;;;13.35;11.93;;;;;;;16.57;85.70;99650.34;1804293;79;21185;-52
2021/09/02 03:20:17;;;;;;;13.15;11.22;;;;;;;16.52;85.55;99650.19;1804253;79;21363;-52
2021/09/02 03:23:23;;;;;;;13.93;12.30;;;;;;;16.50;85.43;99648.19;1803762;79;21889;-52
2021/09/02 03:26:28;;;;;;;13.08;11.65;;;;;;;16.48;85.35;99651.70;1802900;78;21370;-52
2021/09/02 03:29:33;;;;;;;13.55;11.60;;;;;;;16.45;85.37;99657.17;1801996;79;21264;-52
2021/09/02 03:32:39;;;;;;;15.72;11.35;;;;;;;16.43;85.38;99650.47;1802559;79;21348;-52
2021/09/02 03:35:45;;;;;;;13.62;10.80;;;;;;;16.42;85.30;99658.46;1802570;79;21213;-52
2021/09/02 03:38:50;;;;;;;14.28;11.60;;;;;;;16.43;85.36;99657.90;1802497;78;21265;-52
2021/09/02 03:41:55;;;;;;;11.73;10.45;;;;;;;16.44;85.47;99657.70;1802578;79;21398;-52
2021/09/02 03:45:01;;;;;;;13.32;10.70;;;;;;;16.45;85.47;99662.70;1802625;79;21241;-51
2021/09/02 03:48:06;;;;;;;11.00;9.90;;;;;;;16.47;85.48;99656.41;1802687;79;21189;-52
2021/09/02 03:51:13;;;;;;;12.73;10.60;;;;;;;16.49;85.53;99657.56;1802684;79;21398;-52
2021/09/02 03:54:19;;;;;;;12.45;10.72;;;;;;;16.50;85.60;99653.71;1802395;79;21348;-52
2021/09/02 03:57:25;;;;;;;10.93;9.83;;;;;;;16.55;85.65;99658.01;1802589;79;21315;-53
2021/09/02 04:00:31;;;;;;;13.15;11.70;;;;;;;16.61;85.68;99658.45;1802587;79;21343;-52
2021/09/02 04:03:38;;;;;;;13.30;11.88;;;;;;;16.66;85.77;99666.91;1802913;79;21801;-52
2021/09/02 04:06:43;;;;;;;12.05;10.85;;;;;;;16.71;85.73;99660.14;1802687;79;21412;-54
2021/09/02 04:09:48;;;;;;;11.40;10.13;;;;;;;16.77;85.69;99664.73;1784884;79;21394;-52
2021/09/02 04:12:55;;;;;;;13.72;10.43;;;;;;;16.83;85.50;99661.88;1770720;80;21718;-52
2021/09/02 04:16:02;;;;;;;12.63;10.88;;;;;;;16.88;85.31;99651.50;1770723;80;21178;-52
2021/09/02 04:19:08;;;;;;;10.68;9.60;;;;;;;16.94;85.19;99656.09;1770735;80;21193;-52
2021/09/02 04:22:14;;;;;;;11.28;10.10;;;;;;;16.99;84.95;99653.47;1739903;81;21181;-51
2021/09/02 04:25:20;;;;;;;10.70;9.53;;;;;;;17.03;84.82;99648.61;1750930;82;21932;-52
2021/09/02 04:28:24;;;;;;;10.23;9.13;;;;;;;17.09;84.58;99654.61;1705848;83;21420;-52
2021/09/02 04:31:29;;;;;;;11.75;8.93;;;;;;;17.14;84.40;99653.90;1771820;79;21327;-52
2021/09/02 04:34:34;;;;;;;10.55;9.45;;;;;;;17.17;84.30;99659.77;1771489;80;21347;-53
2021/09/02 04:37:48;;;;;;;9.73;8.73;;;;;;;17.20;84.08;99651.56;1771030;80;21172;-52
2021/09/02 04:40:55;;;;;;;10.68;9.65;;;;;;;17.24;84.00;99647.23;1796728;79;21679;-52
2021/09/02 04:44:00;;;;;;;13.85;10.68;;;;;;;17.30;83.79;99646.30;1794489;79;21324;-50
2021/09/02 04:47:06;;;;;;;13.20;10.43;;;;;;;17.31;83.60;99644.69;1770979;79;21228;-52
2021/09/02 04:50:12;;;;;;;12.98;11.20;;;;;;;17.38;83.63;99637.63;1770755;79;21577;-54
2021/09/02 04:53:17;;;;;;;10.72;8.80;;;;;;;17.46;83.25;99640.09;1764913;79;21193;-53
2021/09/02 04:56:22;;;;;;;9.63;8.63;;;;;;;17.51;82.81;99631.92;1769141;81;21283;-54
2021/09/02 04:59:29;;;;;;;11.05;9.73;;;;;;;17.49;82.29;99630.78;1769793;81;21236;-54
2021/09/02 05:02:33;;;;;;;12.07;9.75;;;;;;;17.47;81.96;99632.93;1771775;79;21184;-55
2021/09/02 05:05:39;;;;;;;10.63;9.58;;;;;;;17.48;81.84;99640.70;1782778;79;21490;-52
2021/09/02 05:08:44;;;;;;;12.37;10.10;;;;;;;17.47;81.76;99638.47;1769439;79;21174;-53
2021/09/02 05:11:51;;;;;;;14.43;10.10;;;;;;;17.54;81.76;99639.21;1769277;81;21700;-54
2021/09/02 05:14:58;;;;;;;13.28;10.05;;;;;;;17.58;81.38;99636.81;1769851;80;21708;-54
2021/09/02 05:18:04;;;;;;;12.43;10.50;;;;;;;17.60;81.19;99633.28;1769732;80;21242;-51
2021/09/02 05:21:10;;;;;;;11.15;9.95;;;;;;;17.64;80.94;99638.09;1770259;80;21226;-53
2021/09/02 05:24:15;;;;;;;13.45;10.45;;;;;;;17.69;80.70;99630.45;1764255;80;21193;-51
2021/09/02 05:27:20;;;;;;;14.13;10.38;;;;;;;17.75;80.59;99634.48;1773307;79;21585;-54
2021/09/02 05:30:25;;;;;;;16.65;11.05;;;;;;;17.83;80.14;99645.73;1768884;80;21781;-52
2021/09/02 05:33:31;;;;;;;12.85;11.03;;;;;;;17.78;79.82;99638.16;1769211;80;21256;-54
2021/09/02 05:36:36;;;;;;;11.78;10.55;;;;;;;17.75;79.72;99641.94;1772538;79;21322;-52
2021/09/02 05:39:42;;;;;;;16.87;11.40;;;;;;;17.65;79.48;99641.14;1794318;79;21347;-51
2021/09/02 05:42:48;;;;;;;14.53;11.08;;;;;;;17.57;79.81;99639.26;1800738;79;21826;-50
2021/09/02 05:45:54;;;;;;;13.53;11.68;;;;;;;17.46;79.75;99652.55;1801794;79;21178;-51
2021/09/02 05:48:59;;;;;;;19.98;11.18;;;;;;;17.35;80.16;99653.33;1801476;79;21198;-50
2021/09/02 05:52:07;;;;;;;14.75;11.75;;;;;;;17.30;80.60;99654.61;1802016;79;21197;-50
2021/09/02 05:55:12;;;;;;;13.78;11.08;;;;;;;17.28;80.94;99650.66;1801785;79;21837;-50
2021/09/02 05:58:17;;;;;;;13.65;10.93;;;;;;;17.30;81.13;99657.37;1801850;79;21390;-52
2021/09/02 06:01:22;;;;;;;12.47;11.15;;;;;;;17.22;80.88;99661.86;1800170;79;21868;-51
2021/09/02 06:04:29;;;;;;;12.85;11.40;;;;;;;17.09;81.36;99656.52;1786949;79;21836;-49
2021/09/02 06:07:36;;;;;;;11.63;9.38;;;;;;;17.04;82.01;99654.99;1770528;79;21201;-50
2021/09/02 06:10:42;;;;;;;14.28;10.78;;;;;;;17.04;82.33;99650.84;1788406;79;21351;-50
2021/09/02 06:13:47;;;;;;;14.55;10.93;;;;;;;17.04;82.62;99653.61;1788651;79;21351;-53
2021/09/02 06:16:52;;;;;;;14.25;10.32;;;;;;;17.05;82.68;99656.67;1770206;79;21258;-51
2021/09/02 06:20:01;;;;;;;12.20;9.38;;;;;;;16.99;82.72;99657.09;1794052;79;21213;-51
2021/09/02 06:23:11;;;;;;;11.43;9.60;;;;;;;17.01;82.90;99654.08;1774303;79;21209;-51
2021/09/02 06:26:16;;;;;;;12.25;8.88;;;;;;;17.08;82.94;99654.81;1788156;79;21244;-50
2021/09/02 06:29:22;;;;;;;13.78;9.55;;;;;;;17.22;82.85;99647.47;1768527;79;21195;-50
2021/09/02 06:32:27;;;;;;;12.80;9.10;;;;;;;17.34;82.37;99649.73;1770862;79;21191;-51
2021/09/02 06:35:34;;;;;;;10.82;8.83;;;;;;;17.37;82.09;99652.56;1770526;80;21202;-52
2021/09/02 06:38:39;;;;;;;10.60;8.75;;;;;;;17.40;81.89;99654.84;1770510;80;21206;-52
2021/09/02 06:41:46;;;;;;;10.58;8.93;;;;;;;17.44;81.59;99668.53;1771383;80;21195;-52
2021/09/02 06:44:51;;;;;;;10.98;8.20;;;;;;;17.44;81.32;99663.00;1777735;79;21569;-53
2021/09/02 06:47:57;;;;;;;9.30;8.05;;;;;;;17.46;81.18;99667.77;1766664;79;21297;-52
2021/09/02 06:51:02;;;;;;;9.35;8.03;;;;;;;17.49;81.12;99677.00;1784477;79;21390;-53
2021/09/02 06:54:08;;;;;;;10.13;8.20;;;;;;;17.54;81.08;99668.80;1788068;79;21331;-53
2021/09/02 06:57:15;;;;;;;11.08;8.75;;;;;;;17.59;80.90;99668.41;1760500;81;21184;-51
2021/09/02 07:00:23;;;;;;;10.30;8.50;;;;;;;17.67;80.88;99659.75;1768660;79;21583;-49
2021/09/02 07:03:29;;;;;;;9.15;7.97;;;;;;;17.82;80.76;99660.11;1780483;79;21186;-53
2021/09/02 07:06:36;;;;;;;9.55;7.90;;;;;;;17.97;80.10;99668.47;1771514;79;21181;-53
2021/09/02 07:09:44;;;;;;;9.40;7.47;;;;;;;18.07;79.32;99665.42;1786244;79;21193;-51
2021/09/02 07:12:49;;;;;;;10.03;8.50;;;;;;;18.10;78.49;99671.86;1788983;79;21157;-53
2021/09/02 07:15:54;;;;;;;9.78;7.60;;;;;;;18.09;78.11;99669.34;1790305;79;21998;-53
2021/09/02 07:19:00;;;;;;;10.85;8.60;;;;;;;18.07;77.75;99675.12;1773263;79;21177;-52
2021/09/02 07:22:05;;;;;;;13.78;8.00;;;;;;;18.02;77.48;99665.30;1769022;79;21165;-51
2021/09/02 07:25:12;;;;;;;13.95;8.05;;;;;;;18.02;77.81;99656.98;1768282;79;21181;-51
2021/09/02 07:28:18;;;;;;;9.38;8.13;;;;;;;18.11;77.48;99674.10;1768925;79;21566;-52
2021/09/02 07:31:24;;;;;;;14.25;9.13;;;;;;;18.11;77.19;99661.63;1769300;80;21721;-52
2021/09/02 07:34:31;;;;;;;9.33;7.78;;;;;;;18.23;77.40;99663.30;1769511;80;21224;-51
2021/09/02 07:37:38;;;;;;;11.97;7.65;;;;;;;18.36;77.25;99657.48;1769738;79;21562;-52
2021/09/02 07:40:43;;;;;;;11.10;8.00;;;;;;;18.45;76.38;99651.91;1776261;79;21200;-53
2021/09/02 07:43:53;;;;;;;9.35;7.67;;;;;;;18.39;76.05;99653.43;1798027;79;21736;-54
2021/09/02 07:46:59;;;;;;;10.68;7.37;;;;;;;18.30;76.02;99670.11;1775915;79;21231;-50
2021/09/02 07:50:05;;;;;;;10.23;7.45;;;;;;;18.20;76.13;99674.03;1787275;79;21203;-52
2021/09/02 07:53:10;;;;;;;10.10;6.80;;;;;;;18.10;76.35;99663.55;1769993;81;21212;-52
2021/09/02 07:56:15;;;;;;;8.00;6.80;;;;;;;18.11;76.75;99665.79;1794915;79;21315;-50
2021/09/02 07:59:21;;;;;;;9.75;6.95;;;;;;;18.09;76.82;99654.09;1801463;79;21193;-51
2021/09/02 08:02:26;;;;;;;7.60;6.53;;;;;;;18.12;76.74;99658.63;1801470;79;21323;-52
2021/09/02 08:05:32;;;;;;;8.58;5.62;;;;;;;18.22;76.15;99651.08;1801357;79;21359;-53
2021/09/02 08:08:38;;;;;;;5.33;4.45;;;;;;;18.36;75.75;99653.89;1763923;80;21192;-52
2021/09/02 08:11:44;;;;;;;10.20;4.50;;;;;;;18.51;74.73;99646.77;1770038;80;21170;-53
2021/09/02 08:14:50;;;;;;;5.45;4.00;;;;;;;18.65;73.93;99644.02;1763355;81;21264;-49
2021/09/02 08:17:59;;;;;;;5.87;3.55;;;;;;;18.75;72.86;99658.63;1770130;80;21209;-52
2021/09/02 08:21:06;;;;;;;5.12;3.25;;;;;;;18.81;71.73;99651.56;1764780;79;21164;-55
2021/09/02 08:24:12;;;;;;;3.27;2.70;;;;;;;18.82;70.91;99653.23;1783328;79;21205;-51
2021/09/02 08:27:20;;;;;;;4.22;2.70;;;;;;;18.85;70.96;99653.30;1801328;79;21181;-53
2021/09/02 08:30:28;;;;;;;4.00;2.83;;;;;;;18.92;70.88;99651.20;1795614;79;21335;-53
2021/09/02 08:33:35;;;;;;;5.37;1.90;;;;;;;18.95;70.16;99654.33;1773776;79;21199;-52
2021/09/02 08:36:40;;;;;;;3.35;2.02;;;;;;;19.02;69.36;99646.72;1801711;79;21362;-53
2021/09/02 08:39:45;;;;;;;3.42;2.15;;;;;;;19.03;68.94;99652.55;1801550;79;21406;-52
2021/09/02 08:43:04;;;;;;;3.50;2.35;;;;;;;19.09;69.19;99646.57;1733319;83;21229;-53
2021/09/02 08:46:11;;;;;;;4.75;2.00;;;;;;;19.12;68.82;99655.22;1802534;79;21343;-52
2021/09/02 08:49:18;;;;;;;5.05;2.17;;;;;;;19.09;68.93;99659.88;1802702;79;21359;-52
2021/09/02 08:52:27;;;;;;;4.50;1.98;;;;;;;19.17;68.58;99660.86;1733256;82;21203;-55
2021/09/02 08:55:35;;;;;;;4.33;2.45;;;;;;;19.20;66.88;99645.10;1782001;79;21335;-52
2021/09/02 08:58:42;;;;;;;3.15;1.85;;;;;;;19.23;66.60;99651.53;1801971;79;21570;-51
2021/09/02 09:01:46;;;;;;;5.33;2.60;;;;;;;19.33;65.31;99651.48;1788895;79;21198;-54
2021/09/02 09:05:02;;;;;;;7.03;2.45;;;;;;;19.38;63.90;99644.64;1770022;80;21220;-52
2021/09/02 09:08:08;;;;;;;6.40;3.30;;;;;;;19.37;62.58;99652.65;1773094;79;21177;-53
2021/09/02 09:11:28;;;;;;;3.75;2.45;;;;;;;19.42;61.60;99643.03;1770153;80;21180;-51
2021/09/02 09:14:35;;;;;;;5.72;3.20;;;;;;;19.52;60.67;99644.61;1770746;79;21386;-51
2021/09/02 09:17:43;;;;;;;6.78;3.60;;;;;;;19.56;59.55;99636.91;1770675;80;21221;-53
2021/09/02 09:20:49;;;;;;;5.62;3.50;;;;;;;19.63;59.23;99636.73;1770737;80;21162;-52
2021/09/02 09:24:06;;;;;;;6.05;3.20;;;;;;;19.72;59.85;99637.99;1770430;80;21217;-52
2021/09/02 09:27:15;;;;;;;10.68;3.42;;;;;;;19.85;59.31;99629.32;1770414;81;21319;-52
2021/09/02 09:30:29;;;;;;;6.20;3.02;;;;;;;19.96;56.26;99655.63;1770758;81;21165;-52
2021/09/02 09:33:37;;;;;;;5.92;3.55;;;;;;;19.94;55.70;99638.36;1768972;79;21188;-50
2021/09/02 09:36:46;;;;;;;5.83;3.40;;;;;;;19.91;56.07;99631.92;1735868;82;21726;-52
2021/09/02 09:39:52;;;;;;;5.78;3.50;;;;;;;19.94;56.62;99648.08;1698577;84;21232;-54
2021/09/02 09:43:17;;;;;;;5.28;3.58;;;;;;;19.94;56.04;99659.73;1707702;82;21189;-51
2021/09/02 09:46:24;;;;;;;5.42;3.83;;;;;;;19.86;55.86;99650.44;1735018;82;21193;-53
2021/09/02 09:49:30;;;;;;;6.40;4.10;;;;;;;19.90;56.15;99639.12;1721373;82;21423;-54
2021/09/02 09:52:42;;;;;;;5.87;3.60;;;;;;;20.04;55.86;99654.34;1721014;83;21395;-53
2021/09/02 09:55:49;;;;;;;8.08;4.15;;;;;;;20.12;54.92;99638.06;1720692;82;21391;-53
2021/09/02 09:58:57;;;;;;;8.15;3.87;;;;;;;20.24;54.55;99651.35;1703172;82;21253;-53
2021/09/02 10:02:02;;;;;;;7.87;4.10;;;;;;;20.32;54.30;99655.63;1718744;83;21201;-54
2021/09/02 10:05:14;;;;;;;7.65;4.28;;;;;;;20.29;54.54;99652.82;1769315;79;21263;-52
2021/09/02 10:08:22;;;;;;;6.95;3.85;;;;;;;20.31;54.94;99640.88;1783705;79;21735;-52
2021/09/02 10:11:28;;;;;;;6.70;3.83;;;;;;;20.40;54.04;99652.41;1778739;79;21189;-52
2021/09/02 10:14:34;;;;;;;6.70;3.90;;;;;;;20.36;53.70;99640.13;1769824;81;21185;-49
2021/09/02 10:17:40;;;;;;;6.15;4.08;;;;;;;20.32;53.47;99652.84;1785575;79;21533;-52
2021/09/02 10:20:46;;;;;;;8.75;4.05;;;;;;;20.28;52.91;99648.91;1731928;82;21207;-50
2021/09/02 10:23:52;;;;;;;5.67;4.15;;;;;;;20.23;53.80;99643.27;1750648;81;21821;-50
2021/09/02 10:26:58;;;;;;;8.13;4.42;;;;;;;20.24;53.61;99644.41;1733982;82;21572;-49
2021/09/02 10:30:03;;;;;;;11.03;4.17;;;;;;;20.20;53.80;99664.63;1749751;81;21217;-49
2021/09/02 10:33:07;;;;;;;8.28;4.30;;;;;;;20.03;54.10;99649.33;1746211;79;21592;-52
2021/09/02 10:36:26;;;;;;;6.12;4.37;;;;;;;19.91;54.62;99649.13;1679431;84;21209;-49
2021/09/02 10:39:47;;;;;;;6.15;4.55;;;;;;;19.89;54.86;99658.26;1755325;81;21230;-48
2021/09/02 10:42:57;;;;;;;9.43;5.08;;;;;;;19.90;53.72;99664.13;1739517;82;21237;-50
2021/09/02 10:46:04;;;;;;;7.92;4.60;;;;;;;19.95;53.72;99652.53;1759199;81;21317;-53
2021/09/02 10:49:36;;;;;;;8.15;5.08;;;;;;;20.08;52.96;99659.67;1735550;82;21728;-51
2021/09/02 10:52:46;;;;;;;9.20;4.30;;;;;;;20.15;52.66;99663.16;1750920;80;21194;-50
2021/09/02 10:56:02;;;;;;;7.90;5.22;;;;;;;20.07;53.14;99680.23;1719177;82;21196;-52
2021/09/02 10:59:08;;;;;;;8.60;5.28;;;;;;;19.78;54.27;99693.91;1734692;81;21548;-50
2021/09/02 11:02:19;;;;;;;8.95;4.22;;;;;;;19.41;54.16;99691.33;1759070;81;21196;-52
2021/09/02 11:05:24;;;;;;;8.85;4.92;;;;;;;19.05;54.84;99692.53;1751907;81;21266;-50
2021/09/02 11:08:44;;;;;;;13.13;5.22;;;;;;;18.80;55.19;99695.64;1762527;81;21192;-48
2021/09/02 11:11:54;;;;;;;8.65;5.92;;;;;;;18.57;55.46;99699.84;1763799;81;21152;-51
2021/09/02 11:14:59;;;;;;;6.45;4.80;;;;;;;18.42;56.22;99697.28;1753638;81;21176;-50
2021/09/02 11:18:07;;;;;;;7.58;5.22;;;;;;;18.37;57.03;99707.69;1757217;81;21548;-49
2021/09/02 11:21:19;;;;;;;8.85;5.22;;;;;;;18.37;57.34;99711.84;1742387;81;21713;-51
2021/09/02 11:24:24;;;;;;;9.48;5.22;;;;;;;18.35;56.76;99709.84;1735510;82;21267;-50
2021/09/02 11:27:39;;;;;;;7.22;5.30;;;;;;;18.32;57.32;99714.48;1724424;81;21215;-51
2021/09/02 11:30:44;;;;;;;10.30;5.28;;;;;;;18.32;57.58;99704.80;1729741;83;21369;-50
2021/09/02 11:33:56;;;;;;;8.85;4.78;;;;;;;18.33;57.73;99706.47;1768898;78;21168;-50
2021/09/02 11:37:02;;;;;;;8.18;5.60;;;;;;;18.31;58.16;99704.50;1771881;79;21676;-52
2021/09/02 11:40:09;;;;;;;8.30;5.28;;;;;;;18.31;58.73;99707.80;1797791;79;21201;-51
2021/09/02 11:43:24;;;;;;;9.18;5.70;;;;;;;18.25;58.82;99723.45;1701092;82;21779;-50
2021/09/02 11:46:30;;;;;;;9.78;5.65;;;;;;;18.12;59.91;99739.48;1782130;79;21182;-51
2021/09/02 11:49:36;;;;;;;8.58;5.28;;;;;;;17.89;61.46;99734.23;1769257;80;21208;-50
2021/09/02 11:52:49;;;;;;;10.58;5.75;;;;;;;17.75;62.55;99740.22;1776971;79;21239;-49
2021/09/02 11:55:57;;;;;;;11.88;5.30;;;;;;;17.63;63.46;99737.42;1785930;79;21173;-51
2021/09/02 11:59:11;;;;;;;10.30;5.42;;;;;;;17.53;64.17;99746.86;1777954;79;21628;-50
2021/09/02 12:02:16;;;;;;;8.35;4.90;;;;;;;17.43;64.22;99745.16;1787168;79;21172;-51
2021/09/02 12:05:24;;;;;;;12.37;4.58;;;;;;;17.37;63.20;99747.48;1788899;79;21212;-54
2021/09/02 12:08:30;;;;;;;9.28;3.98;;;;;;;17.28;62.28;99750.26;1768035;79;21271;-53
2021/09/02 12:11:36;;;;;;;9.03;4.08;;;;;;;17.21;62.07;99745.91;1768031;79;21197;-52
2021/09/02 12:14:42;;;;;;;14.85;8.48;;;;;;;17.27;62.05;99782.31;1769117;79;21212;-51
2021/09/02 12:17:48;;;;;;;10.03;6.12;;;;;;;17.32;60.67;99761.70;1769926;80;21696;-49
2021/09/02 12:20:54;;;;;;;13.22;7.50;;;;;;;17.32;59.99;99761.18;1769000;80;21175;-49
2021/09/02 12:24:04;;;;;;;12.30;5.87;;;;;;;17.28;60.35;99767.42;1775474;79;21509;-52
2021/09/02 12:27:11;;;;;;;9.85;4.33;;;;;;;17.21;61.37;99784.62;1774952;79;21203;-54
2021/09/02 12:30:16;;;;;;;10.00;4.45;;;;;;;17.16;61.96;99781.72;1768519;81;21216;-54
2021/09/02 12:33:23;;;;;;;9.43;4.83;;;;;;;17.01;61.35;99795.11;1769086;80;21777;-50
2021/09/02 12:36:29;;;;;;;8.70;4.03;;;;;;;16.80;62.02;99777.08;1769213;79;21200;-53
2021/09/02 12:39:36;;;;;;;13.32;3.87;;;;;;;16.65;62.76;99781.30;1769018;81;21259;-52
2021/09/02 12:42:42;;;;;;;8.73;4.00;;;;;;;16.50;62.37;99780.81;1782316;79;21155;-49
2021/09/02 12:46:04;;;;;;;9.90;4.15;;;;;;;16.39;61.97;99778.24;1785262;79;21201;-52
2021/09/02 12:49:19;;;;;;;7.78;3.92;;;;;;;16.33;61.13;99780.54;1801458;79;21726;-51
2021/09/02 12:52:28;;;;;;;12.50;4.20;;;;;;;16.31;61.04;99781.30;1781399;79;21176;-53
2021/09/02 12:55:34;;;;;;;6.85;3.70;;;;;;;16.36;60.68;99788.37;1774260;79;21205;-50
2021/09/02 12:58:38;;;;;;;9.20;3.75;;;;;;;16.41;60.33;99787.98;1766461;80;21244;-51
2021/09/02 13:01:44;;;;;;;9.38;3.83;;;;;;;16.42;60.17;99782.78;1769431;80;21243;-50
2021/09/02 13:04:53;;;;;;;7.33;3.85;;;;;;;16.53;60.13;99783.11;1769343;80;21228;-50
2021/09/02 13:08:03;;;;;;;14.28;4.42;;;;;;;16.66;59.88;99776.06;1771424;79;21185;-48
2021/09/02 13:11:09;;;;;;;6.60;3.52;;;;;;;16.73;59.60;99785.97;1769214;81;21224;-49
2021/09/02 13:14:15;;;;;;;8.68;3.50;;;;;;;16.79;59.74;99785.04;1791228;79;21208;-50
2021/09/02 13:17:20;;;;;;;9.30;4.47;;;;;;;16.83;59.66;99792.34;1771334;79;21189;-51
2021/09/02 13:20:25;;;;;;;6.97;4.58;;;;;;;16.83;59.82;99796.48;1768647;80;21217;-52
2021/09/02 13:23:31;;;;;;;10.15;4.28;;;;;;;16.82;60.40;99798.95;1768891;80;21197;-55
2021/09/02 13:26:36;;;;;;;8.33;4.05;;;;;;;16.75;60.76;99801.80;1769490;80;21170;-51
2021/09/02 13:29:41;;;;;;;10.50;3.85;;;;;;;16.68;60.37;99804.33;1768631;81;21229;-50
2021/09/02 13:32:47;;;;;;;11.08;3.95;;;;;;;16.67;58.73;99794.33;1769725;80;21185;-51
2021/09/02 13:35:53;;;;;;;10.40;4.35;;;;;;;16.74;57.28;99795.11;1770072;79;21208;-50
2021/09/02 13:38:58;;;;;;;6.03;3.55;;;;;;;16.84;56.23;99806.49;1770527;79;21340;-51
2021/09/02 13:42:03;;;;;;;9.33;3.75;;;;;;;16.98;55.68;99818.52;1801178;79;21725;-50
2021/09/02 13:45:09;;;;;;;11.73;4.10;;;;;;;17.02;54.85;99807.85;1801289;79;21813;-50
2021/09/02 13:48:17;;;;;;;7.05;4.10;;;;;;;17.04;54.96;99794.65;1802319;79;21332;-50
2021/09/02 13:51:23;;;;;;;8.40;3.70;;;;;;;17.04;54.66;99801.56;1802367;79;21186;-49
2021/09/02 13:54:28;;;;;;;11.08;4.10;;;;;;;17.02;53.91;99794.03;1802366;79;21344;-50
2021/09/02 13:57:35;;;;;;;7.03;4.33;;;;;;;17.13;53.59;99798.77;1802240;79;21240;-51
2021/09/02 14:00:40;;;;;;;7.00;4.08;;;;;;;17.25;53.59;99816.30;1801197;79;21209;-53
2021/09/02 14:03:47;;;;;;;10.70;5.25;;;;;;;17.28;53.52;99807.53;1800709;79;21260;-53
2021/09/02 14:06:53;;;;;;;9.33;4.45;;;;;;;17.23;54.04;99802.70;1770933;80;21267;-49
2021/09/02 14:09:57;;;;;;;10.40;4.53;;;;;;;17.19;54.50;99798.70;1768718;80;21734;-50
2021/09/02 14:13:04;;;;;;;6.90;3.52;;;;;;;17.22;55.00;99818.97;1769430;80;21166;-55
2021/09/02 14:16:10;;;;;;;9.83;3.60;;;;;;;17.32;54.59;99833.11;1768572;81;21217;-56
2021/09/02 14:19:17;;;;;;;6.87;3.75;;;;;;;17.30;54.45;99813.13;1769168;80;21212;-55
2021/09/02 14:22:25;;;;;;;5.45;2.80;;;;;;;17.19;54.51;99831.89;1769559;81;21200;-56
2021/09/02 14:25:31;;;;;;;5.97;2.08;;;;;;;17.02;54.64;99836.89;1787797;79;21205;-56
2021/09/02 14:28:37;;;;;;;8.83;3.10;;;;;;;16.88;55.03;99827.06;1734233;82;21199;-56
2021/09/02 14:31:47;;;;;;;4.92;2.40;;;;;;;16.81;55.46;99830.45;1777971;79;21579;-55